Time;durP1;ratioP1;P1;durP2;ratioP2;P2;SDS_P1;SDS_P2;PMS_P1;PMS_P2;Temp;Humidity;BMP_temperature;BMP_pressure;BME280_temperature;BME280_humidity;BME280_pressure;Samples;Min_cycle;Max_cycle;Signal;HPM_P1;HPM_P2
2023/04/13 00:01:51;;;;;;;1.10;0.90;;;;;;;8.04;100.00;95283.06;5029571;28;104827;-64
2023/04/13 00:04:22;;;;;;;0.40;0.40;;;;;;;8.03;100.00;95287.56;5028272;28;105340;-64
2023/04/13 00:06:50;;;;;;;1.57;0.87;;;;;;;7.97;100.00;95287.81;5029537;28;102167;-64
2023/04/13 00:09:18;;;;;;;1.57;1.03;;;;;;;7.98;100.00;95281.47;5032218;28;104921;-64
2023/04/13 00:11:45;;;;;;;1.77;0.90;;;;;;;7.99;100.00;95283.03;5029330;28;101863;-64
2023/04/13 00:14:12;;;;;;;2.13;1.07;;;;;;;7.99;100.00;95283.03;5029392;28;104725;-64
2023/04/13 00:16:41;;;;;;;1.43;1.23;;;;;;;7.94;100.00;95272.44;5028521;28;105137;-64
2023/04/13 00:19:08;;;;;;;1.67;1.10;;;;;;;8.02;100.00;95271.94;5029187;28;101993;-64
2023/04/13 00:21:35;;;;;;;0.73;0.70;;;;;;;8.08;100.00;95270.91;5028682;28;105310;-64
2023/04/13 00:24:03;;;;;;;0.90;0.70;;;;;;;8.11;100.00;95273.81;5028411;28;104991;-64
2023/04/13 00:26:30;;;;;;;0.60;0.50;;;;;;;8.11;100.00;95270.38;5029236;28;101776;-64
2023/04/13 00:28:57;;;;;;;1.47;0.73;;;;;;;8.18;100.00;95268.28;5031872;28;105314;-64
2023/04/13 00:31:25;;;;;;;1.03;0.47;;;;;;;8.17;100.00;95278.06;5062041;27;102660;-64
2023/04/13 00:33:53;;;;;;;0.60;0.60;;;;;;;8.18;100.00;95270.94;5028741;28;105262;-64
2023/04/13 00:36:20;;;;;;;0.67;0.60;;;;;;;8.19;100.00;95283.09;5028406;28;105404;-64
2023/04/13 00:38:47;;;;;;;0.60;0.60;;;;;;;8.15;100.00;95284.69;5029174;28;101883;-64
2023/04/13 00:41:16;;;;;;;2.23;0.80;;;;;;;8.17;100.00;95288.66;5028980;28;104820;-64
2023/04/13 00:43:43;;;;;;;0.40;0.40;;;;;;;8.14;100.00;95294.50;5028219;28;105334;-64
2023/04/13 00:46:11;;;;;;;0.50;0.50;;;;;;;8.16;100.00;95299.50;5028959;28;101895;-64
2023/04/13 00:48:38;;;;;;;0.40;0.40;;;;;;;8.21;100.00;95307.50;5029049;28;105262;-64
2023/04/13 00:51:05;;;;;;;0.50;0.50;;;;;;;8.11;100.00;95320.66;5031586;28;105249;-64
2023/04/13 00:53:33;;;;;;;0.73;0.53;;;;;;;8.06;100.00;95323.28;5028708;28;105463;-64
2023/04/13 00:56:02;;;;;;;0.53;0.53;;;;;;;7.93;100.00;95337.03;5028138;28;105193;-64
2023/04/13 00:58:31;;;;;;;0.50;0.50;;;;;;;7.87;100.00;95335.41;5028869;28;101848;-64
2023/04/13 01:00:58;;;;;;;0.50;0.50;;;;;;;7.78;100.00;95350.19;5029973;28;102339;-64
2023/04/13 01:03:28;;;;;;;0.77;0.60;;;;;;;7.67;100.00;95341.41;5028049;28;105189;-64
2023/04/13 01:06:09;;;;;;;0.40;0.40;;;;;;;7.62;100.00;95344.03;5028754;28;101848;-64
2023/04/13 01:08:44;;;;;;;0.83;0.40;;;;;;;7.52;100.00;95356.44;5028501;28;104732;-64
2023/04/13 01:11:18;;;;;;;0.40;0.40;;;;;;;7.45;100.00;95356.63;5029576;28;102860;-64
2023/04/13 01:13:51;;;;;;;0.50;0.50;;;;;;;7.36;100.00;95360.03;5032292;28;101769;-64
2023/04/13 01:16:22;;;;;;;0.30;0.30;;;;;;;7.29;100.00;95364.72;5027937;28;105389;-64
2023/04/13 01:18:53;;;;;;;1.00;0.40;;;;;;;7.17;100.00;95361.47;5028379;28;101826;-64
2023/04/13 01:21:24;;;;;;;0.60;0.60;;;;;;;6.89;100.00;95367.06;5027990;28;105651;-64
2023/04/13 01:24:09;;;;;;;0.67;0.60;;;;;;;6.48;100.00;95388.88;5027803;28;104126;-64
2023/04/13 01:26:44;;;;;;;0.40;0.40;;;;;;;6.31;100.00;95382.88;5028714;28;102170;-64
2023/04/13 01:29:13;;;;;;;0.87;0.57;;;;;;;6.21;100.00;95391.50;5028552;28;105022;-64
2023/04/13 01:31:40;;;;;;;0.60;0.60;;;;;;;6.13;100.00;95401.69;5027250;28;105630;-64
2023/04/13 01:34:09;;;;;;;1.63;0.73;;;;;;;6.08;100.00;95398.97;5028207;28;101863;-64
2023/04/13 01:36:38;;;;;;;1.00;0.47;;;;;;;5.99;100.00;95406.53;5031272;28;104075;-64
2023/04/13 01:39:06;;;;;;;1.70;0.90;;;;;;;5.97;100.00;95395.44;5028504;28;101913;-64
2023/04/13 01:41:35;;;;;;;1.53;0.60;;;;;;;5.89;100.00;95398.50;5029608;28;104740;-64
2023/04/13 01:44:02;;;;;;;1.23;0.90;;;;;;;5.94;100.00;95409.13;5031021;28;105520;-64
2023/04/13 01:46:36;;;;;;;1.13;0.80;;;;;;;5.92;100.00;95403.28;5031655;28;101905;-64
2023/04/13 01:49:32;;;;;;;0.33;0.30;;;;;;;6.00;100.00;95410.00;5032200;28;103714;-64
2023/04/13 01:52:19;;;;;;;0.30;0.30;;;;;;;6.00;100.00;95407.34;5030755;28;104995;-64
2023/04/13 01:54:49;;;;;;;0.47;0.47;;;;;;;5.99;100.00;95418.91;5031518;28;102011;-64
2023/04/13 01:57:17;;;;;;;1.13;0.50;;;;;;;6.02;100.00;95406.06;5031364;28;105014;-64
2023/04/13 01:59:46;;;;;;;0.40;0.40;;;;;;;6.04;100.00;95408.44;5034184;28;105533;-64
2023/04/13 02:02:19;;;;;;;0.40;0.40;;;;;;;6.05;100.00;95410.06;5031415;28;103990;-64
2023/04/13 02:04:47;;;;;;;0.30;0.30;;;;;;;6.02;100.00;95421.09;5030709;28;105003;-64
2023/04/13 02:07:15;;;;;;;1.03;0.43;;;;;;;6.04;100.00;95408.44;5014994;28;101805;-64
2023/04/13 02:09:46;;;;;;;0.57;0.40;;;;;;;6.06;100.00;95411.63;5031414;28;104836;-64
2023/04/13 02:12:17;;;;;;;0.30;0.30;;;;;;;6.04;100.00;95413.72;5030416;28;105559;-64
2023/04/13 02:14:44;;;;;;;0.30;0.30;;;;;;;6.06;100.00;95411.63;5030917;28;101923;-64
2023/04/13 02:17:11;;;;;;;0.73;0.63;;;;;;;6.01;100.00;95420.28;5031357;28;105527;-64
2023/04/13 02:19:44;;;;;;;0.50;0.40;;;;;;;6.01;100.00;95422.13;5030628;28;105201;-64
2023/04/13 02:22:15;;;;;;;0.50;0.50;;;;;;;5.96;100.00;95438.72;5034103;28;102053;-64
2023/04/13 02:24:42;;;;;;;1.17;0.40;;;;;;;5.90;100.00;95441.50;5030348;28;106052;-64
2023/04/13 02:27:11;;;;;;;1.10;0.43;;;;;;;5.86;100.00;95433.28;5031092;28;101688;-64
2023/04/13 02:29:38;;;;;;;0.30;0.30;;;;;;;5.82;100.00;95436.63;5031164;28;104943;-64
2023/04/13 02:32:05;;;;;;;1.70;0.40;;;;;;;5.78;100.00;95436.31;5030122;28;105128;-64
2023/04/13 02:34:32;;;;;;;0.40;0.40;;;;;;;5.81;100.00;95437.69;5031029;28;101956;-64
2023/04/13 02:37:02;;;;;;;0.23;0.23;;;;;;;5.76;100.00;95432.31;5030844;28;105315;-64
2023/04/13 02:39:30;;;;;;;0.63;0.30;;;;;;;5.72;100.00;95434.63;5030167;28;105034;-64
2023/04/13 02:41:59;;;;;;;0.40;0.40;;;;;;;5.71;100.00;95430.41;5033950;28;101863;-64
2023/04/13 02:44:29;;;;;;;0.30;0.30;;;;;;;5.67;100.00;95429.28;5030102;28;104019;-64
2023/04/13 02:46:58;;;;;;;0.40;0.40;;;;;;;5.78;100.00;95431.03;5030968;28;102206;-64
2023/04/13 02:49:26;;;;;;;0.40;0.40;;;;;;;5.79;100.00;95437.13;5030577;28;105159;-64
2023/04/13 02:52:30;;;;;;;0.63;0.30;;;;;;;5.72;100.00;95433.88;5025181;27;103950;-64
2023/04/13 02:55:05;;;;;;;1.13;0.30;;;;;;;5.67;100.00;95431.16;5030719;28;102050;-64
2023/04/13 02:57:44;;;;;;;0.90;0.50;;;;;;;5.68;100.00;95433.53;5030613;28;104919;-64
2023/04/13 03:00:14;;;;;;;0.43;0.40;;;;;;;5.69;100.00;95421.16;5029744;28;104929;-64
2023/04/13 03:02:48;;;;;;;0.33;0.33;;;;;;;5.72;100.00;95420.69;5064489;27;101957;-64
2023/04/13 03:05:18;;;;;;;0.30;0.30;;;;;;;5.72;100.00;95413.53;5033222;28;105300;-64
2023/04/13 03:07:48;;;;;;;0.80;0.50;;;;;;;5.73;100.00;95407.22;5030373;28;101950;-64
2023/04/13 03:10:17;;;;;;;1.17;0.43;;;;;;;5.76;100.00;95405.94;5030449;28;105147;-64
2023/04/13 03:12:45;;;;;;;0.87;0.30;;;;;;;5.83;100.00;95396.06;5029586;28;104851;-64
2023/04/13 03:15:14;;;;;;;0.73;0.50;;;;;;;5.85;100.00;95394.75;5030174;28;101859;-64
2023/04/13 03:17:42;;;;;;;0.40;0.40;;;;;;;5.84;100.00;95401.06;5030066;28;104973;-64
2023/04/13 03:20:15;;;;;;;0.40;0.40;;;;;;;5.87;100.00;95391.88;5029677;28;105150;-64
2023/04/13 03:22:54;;;;;;;0.50;0.50;;;;;;;5.84;100.00;95392.38;5029883;28;101840;-64
2023/04/13 03:25:22;;;;;;;1.80;0.50;;;;;;;5.87;100.00;95397.94;5030451;28;105198;-64
2023/04/13 03:27:49;;;;;;;0.83;0.50;;;;;;;5.84;100.00;95397.66;5032780;28;104473;-64
2023/04/13 03:30:18;;;;;;;0.60;0.60;;;;;;;5.84;100.00;95402.91;5029981;28;105006;-64
2023/04/13 03:32:54;;;;;;;0.40;0.40;;;;;;;5.80;100.00;95391.25;5029343;28;105394;-64
2023/04/13 03:35:24;;;;;;;0.50;0.50;;;;;;;5.88;100.00;95411.91;5030092;28;101872;-64
2023/04/13 03:37:52;;;;;;;1.43;0.80;;;;;;;5.84;100.00;95405.56;5029854;28;104785;-64
2023/04/13 03:40:52;;;;;;;0.67;0.63;;;;;;;5.85;100.00;95401.88;5023253;27;103813;-64
2023/04/13 03:43:19;;;;;;;0.77;0.67;;;;;;;5.85;100.00;95396.59;5029796;28;101915;-64
2023/04/13 03:45:55;;;;;;;2.40;0.50;;;;;;;5.78;100.00;95399.38;5029596;28;103636;-64
2023/04/13 03:48:23;;;;;;;0.40;0.40;;;;;;;5.88;100.00;95401.38;5029054;28;104244;-64
2023/04/13 03:50:51;;;;;;;0.50;0.50;;;;;;;5.80;100.00;95391.25;5033342;28;102018;-64
2023/04/13 03:53:25;;;;;;;0.40;0.40;;;;;;;5.77;100.00;95395.16;5028728;28;104930;-64
2023/04/13 03:55:56;;;;;;;0.63;0.30;;;;;;;5.78;100.00;95388.03;5029589;28;101855;-64
2023/04/13 03:58:23;;;;;;;0.50;0.50;;;;;;;5.75;100.00;95384.06;5029468;28;104212;-64
2023/04/13 04:00:51;;;;;;;0.87;0.43;;;;;;;5.73;100.00;95385.34;5029266;28;104845;-64
2023/04/13 04:03:27;;;;;;;0.37;0.37;;;;;;;5.77;100.00;95386.41;5029253;28;101989;-64
2023/04/13 04:05:57;;;;;;;0.50;0.50;;;;;;;5.72;100.00;95378.47;5028128;28;105417;-64
2023/04/13 04:08:29;;;;;;;0.73;0.50;;;;;;;5.75;100.00;95384.06;5028987;28;105074;-64
2023/04/13 04:11:00;;;;;;;0.50;0.40;;;;;;;5.70;100.00;95388.44;5029382;28;101833;-64
2023/04/13 04:13:30;;;;;;;0.63;0.50;;;;;;;5.71;100.00;95388.22;5032063;28;105318;-64
2023/04/13 04:16:02;;;;;;;1.07;0.40;;;;;;;5.75;100.00;95391.16;5029600;28;101749;-64
2023/04/13 04:18:32;;;;;;;0.80;0.50;;;;;;;5.75;100.00;95391.97;5029392;28;103648;-64
2023/04/13 04:21:01;;;;;;;1.47;0.50;;;;;;;5.75;100.00;95396.44;5027969;28;105103;-64
2023/04/13 04:23:36;;;;;;;1.43;0.60;;;;;;;5.77;100.00;95396.97;5029005;28;101951;-64
2023/04/13 04:26:06;;;;;;;0.60;0.60;;;;;;;5.77;100.00;95391.69;5029361;28;105216;-64
2023/04/13 04:28:49;;;;;;;1.73;0.70;;;;;;;5.75;100.00;95383.25;5028596;28;104176;-64
2023/04/13 04:31:20;;;;;;;0.53;0.50;;;;;;;5.75;100.00;95378.78;5028794;28;101912;-64
2023/04/13 04:33:51;;;;;;;1.67;0.70;;;;;;;5.71;100.00;95380.31;5029109;28;104885;-64
2023/04/13 04:36:19;;;;;;;2.47;0.80;;;;;;;5.65;100.00;95383.09;5031781;27;101980;-64
2023/04/13 04:39:00;;;;;;;2.27;0.70;;;;;;;5.71;100.00;95366.31;5028987;28;105866;-64
2023/04/13 04:41:30;;;;;;;1.63;0.70;;;;;;;5.65;100.00;95377.84;5029972;27;102420;-64
2023/04/13 04:44:02;;;;;;;1.90;0.60;;;;;;;5.64;100.00;95389.44;5028845;28;101769;-64
2023/04/13 04:46:37;;;;;;;2.00;0.60;;;;;;;5.62;100.00;95388.88;5028597;28;104824;-64
2023/04/13 04:49:07;;;;;;;0.70;0.70;;;;;;;5.58;100.00;95388.56;5028113;28;105033;-64
2023/04/13 04:51:34;;;;;;;1.93;0.70;;;;;;;5.60;100.00;95390.94;5028646;28;101911;-64
2023/04/13 04:54:06;;;;;;;0.90;0.60;;;;;;;5.59;100.00;95389.34;5028397;28;105224;-64
2023/04/13 04:56:34;;;;;;;0.90;0.47;;;;;;;5.61;100.00;95395.19;5033149;27;102508;-64
2023/04/13 04:59:00;;;;;;;1.63;0.60;;;;;;;5.62;100.00;95402.06;5028394;28;104769;-64
2023/04/13 05:01:37;;;;;;;1.10;0.63;;;;;;;5.63;100.00;95407.06;5028152;28;104959;-64
2023/04/13 05:04:11;;;;;;;0.60;0.60;;;;;;;5.63;100.00;95417.63;5028723;28;101785;-64
2023/04/13 05:06:41;;;;;;;1.07;0.70;;;;;;;5.61;100.00;95414.44;5030100;27;102267;-64
2023/04/13 05:09:13;;;;;;;0.93;0.50;;;;;;;5.69;100.00;95414.03;5028149;28;104098;-64
2023/04/13 05:11:45;;;;;;;1.63;0.70;;;;;;;5.62;100.00;95415.25;5028707;28;101774;-64
2023/04/13 05:14:14;;;;;;;0.60;0.60;;;;;;;5.70;100.00;95412.19;5028206;28;105148;-64
2023/04/13 05:16:41;;;;;;;0.50;0.50;;;;;;;5.72;100.00;95415.41;5029593;27;105414;-64
2023/04/13 05:19:16;;;;;;;0.60;0.60;;;;;;;5.75;100.00;95420.16;5035602;28;101890;-64
2023/04/13 05:21:59;;;;;;;1.27;0.60;;;;;;;5.78;100.00;95415.19;5031031;28;105458;-64
2023/04/13 05:24:32;;;;;;;1.37;0.80;;;;;;;5.82;100.00;95415.53;5031849;28;101853;-64
2023/04/13 05:27:00;;;;;;;1.50;0.87;;;;;;;5.79;100.00;95410.75;5031998;28;105159;-64
2023/04/13 05:29:26;;;;;;;1.37;0.80;;;;;;;5.81;100.00;95424.50;5031426;28;105332;-64
2023/04/13 05:31:53;;;;;;;2.00;1.30;;;;;;;5.80;100.00;95426.34;5031731;28;101968;-64
2023/04/13 05:34:22;;;;;;;3.17;1.43;;;;;;;5.83;100.00;95427.72;5031536;28;104848;-64
2023/04/13 05:37:03;;;;;;;3.00;1.50;;;;;;;5.89;100.00;95434.66;5030956;28;105467;-64
2023/04/13 05:39:32;;;;;;;2.53;1.57;;;;;;;5.93;100.00;95430.47;5031755;28;101940;-64
2023/04/13 05:42:01;;;;;;;2.57;1.63;;;;;;;5.98;100.00;95431.34;5034408;28;104802;-64
2023/04/13 05:44:31;;;;;;;3.13;1.60;;;;;;;6.00;100.00;95439.78;5031689;28;101912;-64
2023/04/13 05:46:58;;;;;;;2.60;1.00;;;;;;;5.99;100.00;95437.38;5031845;28;104828;-64
2023/04/13 05:49:25;;;;;;;2.17;1.00;;;;;;;6.08;100.00;95430.66;5031159;28;105131;-64
2023/04/13 05:51:54;;;;;;;1.20;0.90;;;;;;;6.18;100.00;95441.34;5031052;28;102005;-68
2023/04/13 05:54:26;;;;;;;1.23;0.60;;;;;;;6.16;100.00;95444.22;5031411;28;103474;-65
2023/04/13 05:56:55;;;;;;;0.63;0.63;;;;;;;6.26;100.00;95448.81;5030780;28;105132;-67
2023/04/13 05:59:24;;;;;;;1.20;0.90;;;;;;;6.31;100.00;95446.22;5031470;28;101967;-67
2023/04/13 06:01:52;;;;;;;1.23;1.00;;;;;;;6.31;100.00;95451.50;5031153;28;104084;-67
2023/04/13 06:04:19;;;;;;;0.70;0.70;;;;;;;6.23;100.00;95444.03;5034146;28;105013;-67
2023/04/13 06:06:50;;;;;;;0.70;0.70;;;;;;;6.20;100.00;95450.59;5031238;28;104839;-66
2023/04/13 06:09:17;;;;;;;1.03;0.67;;;;;;;6.21;100.00;95454.06;5030856;28;105399;-67
2023/04/13 06:11:45;;;;;;;0.70;0.60;;;;;;;6.21;100.00;95456.69;5031418;28;101878;-67
2023/04/13 06:14:16;;;;;;;1.97;1.10;;;;;;;6.17;100.00;95460.88;5031345;28;104811;-67
2023/04/13 06:16:43;;;;;;;1.47;1.00;;;;;;;6.23;100.00;95467.81;5030466;28;105699;-67
2023/04/13 06:19:12;;;;;;;2.80;1.07;;;;;;;6.21;100.00;95461.97;5031335;28;101922;-67
2023/04/13 06:21:38;;;;;;;4.07;1.70;;;;;;;6.29;100.00;95464.19;5030538;28;104965;-67
2023/04/13 06:24:06;;;;;;;3.97;1.93;;;;;;;6.40;100.00;95466.69;5030446;28;105220;-67
2023/04/13 06:26:36;;;;;;;4.63;1.80;;;;;;;6.39;100.00;95470.34;5034449;28;102075;-67
2023/04/13 06:29:03;;;;;;;3.60;1.90;;;;;;;6.44;100.00;95470.44;5029362;27;105858;-67
2023/04/13 06:31:40;;;;;;;3.07;1.00;;;;;;;6.43;100.00;95468.06;5030825;28;101977;-67
2023/04/13 06:34:12;;;;;;;2.07;1.50;;;;;;;6.45;100.00;95469.41;5031018;28;104908;-67
2023/04/13 06:36:39;;;;;;;2.97;1.67;;;;;;;6.42;100.00;95475.16;5030064;28;105874;-67
2023/04/13 06:39:09;;;;;;;0.83;0.80;;;;;;;6.44;100.00;95483.63;5030892;28;101880;-67
2023/04/13 06:41:37;;;;;;;1.77;0.80;;;;;;;6.42;100.00;95479.63;5031001;28;105251;-67
2023/04/13 06:44:42;;;;;;;1.57;0.93;;;;;;;6.46;100.00;95470.19;5030994;28;103134;-67
2023/04/13 06:47:11;;;;;;;2.67;0.90;;;;;;;6.50;100.00;95461.50;5034012;28;102076;-67
2023/04/13 06:49:38;;;;;;;2.30;1.40;;;;;;;6.51;100.00;95472.88;5029826;28;105100;-67
2023/04/13 06:52:06;;;;;;;2.40;1.50;;;;;;;6.62;100.00;95472.75;5030882;28;102084;-67
2023/04/13 06:54:35;;;;;;;1.33;0.87;;;;;;;6.79;100.00;95468.19;5030312;28;105455;-67
2023/04/13 06:57:12;;;;;;;1.50;0.83;;;;;;;6.84;100.00;95472.72;5029880;28;104389;-67
2023/04/13 06:59:39;;;;;;;1.37;0.90;;;;;;;7.03;100.00;95466.03;5030734;28;102120;-67
2023/04/13 07:02:08;;;;;;;0.70;0.70;;;;;;;7.07;100.00;95461.84;5030676;28;105059;-66
2023/04/13 07:04:39;;;;;;;0.90;0.80;;;;;;;7.04;100.00;95468.41;5029866;28;104936;-67
2023/04/13 07:07:07;;;;;;;0.77;0.73;;;;;;;7.18;100.00;95468.81;5064523;27;101917;-67
2023/04/13 07:09:34;;;;;;;0.60;0.50;;;;;;;7.22;100.00;95475.19;5033060;28;105139;-67
2023/04/13 07:12:04;;;;;;;0.60;0.60;;;;;;;7.29;100.00;95475.78;5030509;28;101860;-67
2023/04/13 07:14:33;;;;;;;1.23;0.80;;;;;;;7.38;100.00;95476.91;5030334;28;104940;-67
2023/04/13 07:17:00;;;;;;;1.00;0.60;;;;;;;7.41;100.00;95476.44;5029286;28;105041;-67
2023/04/13 07:19:30;;;;;;;0.50;0.50;;;;;;;7.46;100.00;95476.44;5030214;28;102028;-67
2023/04/13 07:22:03;;;;;;;0.80;0.40;;;;;;;7.49;100.00;95478.59;5029745;28;105183;-67
2023/04/13 07:24:34;;;;;;;0.87;0.73;;;;;;;7.63;100.00;95479.78;5029386;28;105881;-66
2023/04/13 07:27:07;;;;;;;0.43;0.43;;;;;;;7.68;100.00;95483.25;5030103;28;101898;-66
2023/04/13 07:29:34;;;;;;;0.40;0.40;;;;;;;7.72;100.00;95480.88;5029863;28;105169;-66
2023/04/13 07:32:07;;;;;;;1.33;0.33;;;;;;;7.61;100.00;95473.91;5032619;28;105538;-67
2023/04/13 07:34:37;;;;;;;7.33;2.03;;;;;;;7.54;100.00;95483.94;5029746;28;104754;-67
2023/04/13 07:37:06;;;;;;;0.60;0.60;;;;;;;7.54;100.00;95482.09;5029538;28;105681;-66
2023/04/13 07:39:33;;;;;;;1.87;0.70;;;;;;;7.69;100.00;95481.41;5029579;28;101851;-66
2023/04/13 07:42:02;;;;;;;0.80;0.60;;;;;;;7.65;100.00;95483.75;5030047;28;104985;-67
2023/04/13 07:44:37;;;;;;;0.50;0.50;;;;;;;7.78;100.00;95483.31;5028967;28;105442;-67
2023/04/13 07:47:05;;;;;;;0.67;0.67;;;;;;;7.90;100.00;95491.06;5029889;28;101819;-66
2023/04/13 07:49:36;;;;;;;0.97;0.70;;;;;;;7.77;100.00;95470.31;5029658;28;104996;-67
2023/04/13 07:52:07;;;;;;;0.90;0.67;;;;;;;8.05;100.00;95475.25;5029128;28;105015;-66
2023/04/13 07:54:38;;;;;;;0.93;0.50;;;;;;;8.14;100.00;95479.03;5033036;28;101780;-67
2023/04/13 07:57:08;;;;;;;0.50;0.50;;;;;;;8.29;100.00;95476.50;5028887;28;105422;-66
2023/04/13 07:59:38;;;;;;;1.90;0.60;;;;;;;8.21;100.00;95464.53;5029697;28;101812;-66
2023/04/13 08:02:06;;;;;;;1.23;0.70;;;;;;;8.29;100.00;95473.84;5029395;28;105375;-66
2023/04/13 08:04:36;;;;;;;1.30;0.50;;;;;;;8.25;100.00;95472.75;5028872;28;105595;-66
2023/04/13 08:07:04;;;;;;;0.53;0.40;;;;;;;8.57;100.00;95462.84;5029698;28;101824;-66
2023/04/13 08:09:36;;;;;;;0.40;0.40;;;;;;;8.72;100.00;95465.53;5029404;28;104854;-66
2023/04/13 08:12:03;;;;;;;1.97;0.50;;;;;;;8.60;100.00;95467.59;5028763;28;104915;-67
2023/04/13 08:14:31;;;;;;;1.27;0.60;;;;;;;8.85;100.00;95457.09;5012554;28;101905;-67
2023/04/13 08:16:58;;;;;;;1.70;0.90;;;;;;;8.92;100.00;95462.91;5032062;28;105217;-67
2023/04/13 08:19:25;;;;;;;2.37;0.50;;;;;;;8.81;100.00;95458.66;5029089;28;101860;-67
2023/04/13 08:21:58;;;;;;;1.40;0.50;;;;;;;8.93;100.00;95464.50;5028777;28;104789;-67
2023/04/13 08:24:26;;;;;;;0.57;0.50;;;;;;;8.95;100.00;95465.84;5028574;28;103967;-67
2023/04/13 08:26:57;;;;;;;1.50;0.60;;;;;;;8.95;100.00;95459.75;5029314;28;101911;-67
2023/04/13 08:29:24;;;;;;;1.70;0.70;;;;;;;9.05;100.00;95454.47;5029081;28;105192;-67
2023/04/13 08:31:51;;;;;;;2.53;0.77;;;;;;;8.98;100.00;95465.31;5028083;28;105006;-67
2023/04/13 08:34:19;;;;;;;2.00;0.67;;;;;;;9.13;100.00;95467.19;5029076;28;101947;-67
2023/04/13 08:36:46;;;;;;;1.87;0.70;;;;;;;9.23;100.00;95470.69;5029178;28;103748;-67
2023/04/13 08:39:15;;;;;;;1.60;0.50;;;;;;;9.41;100.00;95458.72;5031689;28;105352;-67
2023/04/13 08:41:45;;;;;;;2.00;0.80;;;;;;;9.27;100.00;95455.03;5028905;28;105388;-66
2023/04/13 08:44:15;;;;;;;2.43;1.00;;;;;;;9.41;100.00;95450.78;5028518;28;105483;-67
2023/04/13 08:46:46;;;;;;;2.00;0.70;;;;;;;9.44;100.00;95442.28;5030202;27;101758;-67
2023/04/13 08:49:15;;;;;;;0.83;0.60;;;;;;;9.43;100.00;95452.09;5028737;28;105540;-67
2023/04/13 08:52:15;;;;;;;1.43;0.70;;;;;;;9.20;100.00;95449.16;5030518;27;103971;-66
2023/04/13 08:54:43;;;;;;;1.57;0.83;;;;;;;9.28;100.00;95438.81;5035724;28;102100;-67
2023/04/13 08:57:19;;;;;;;3.07;1.20;;;;;;;9.60;100.00;95443.88;5035366;28;105182;-66
2023/04/13 08:59:49;;;;;;;2.93;0.70;;;;;;;9.55;100.00;95443.88;5038378;28;105863;-66
2023/04/13 09:02:18;;;;;;;3.93;1.00;;;;;;;9.60;100.00;95433.28;5035516;28;105518;-66
2023/04/13 09:04:55;;;;;;;1.07;0.60;;;;;;;9.50;100.00;95438.56;5034718;28;103984;-72
2023/04/13 09:07:26;;;;;;;3.20;0.80;;;;;;;9.84;100.00;95428.97;5035296;28;101825;-64
2023/04/13 09:09:58;;;;;;;3.20;1.23;;;;;;;10.34;100.00;95434.16;5035440;28;105023;-64
2023/04/13 09:12:25;;;;;;;1.87;0.60;;;;;;;9.65;100.00;95426.09;5034740;28;105675;-64
2023/04/13 09:14:54;;;;;;;1.93;0.50;;;;;;;9.54;100.00;95429.81;5069329;27;101942;-65
2023/04/13 09:17:25;;;;;;;1.30;0.60;;;;;;;9.35;100.00;95425.31;5035387;28;104460;-65
2023/04/13 09:19:53;;;;;;;1.53;0.73;;;;;;;9.56;100.00;95421.59;5034612;28;105569;-64
2023/04/13 09:22:21;;;;;;;2.70;0.70;;;;;;;9.33;100.00;95419.47;5038334;28;101891;-64
2023/04/13 09:24:48;;;;;;;2.17;0.60;;;;;;;9.24;100.00;95415.75;5034365;28;104237;-64
2023/04/13 09:27:19;;;;;;;2.20;0.73;;;;;;;9.87;100.00;95415.19;5035324;28;101918;-64
2023/04/13 09:29:51;;;;;;;1.67;0.53;;;;;;;9.88;100.00;95411.44;5035110;28;105140;-64
2023/04/13 09:32:24;;;;;;;2.63;0.80;;;;;;;9.87;100.00;95393.94;5035700;27;103136;-64
2023/04/13 09:34:59;;;;;;;2.10;1.10;;;;;;;9.69;100.00;95410.41;5034933;28;101841;-64
2023/04/13 09:37:27;;;;;;;2.77;0.90;;;;;;;9.70;100.00;95401.41;5036448;27;102336;-67
2023/04/13 09:39:54;;;;;;;2.37;0.80;;;;;;;9.77;97.62;95402.69;5034217;28;105797;-73
2023/04/13 09:42:22;;;;;;;2.40;0.73;;;;;;;9.80;99.07;95398.72;5034997;28;102037;-64
2023/04/13 09:44:57;;;;;;;1.93;0.90;;;;;;;9.84;100.00;95400.56;5037582;28;104663;-64
2023/04/13 09:47:34;;;;;;;1.63;0.87;;;;;;;10.04;100.00;95397.09;5034863;28;101833;-62
2023/04/13 09:50:03;;;;;;;2.37;0.90;;;;;;;9.96;98.91;95389.63;5034948;28;104989;-62
2023/04/13 09:52:31;;;;;;;1.57;0.90;;;;;;;10.13;100.00;95398.91;5033903;28;105155;-67
2023/04/13 09:54:58;;;;;;;3.17;0.80;;;;;;;9.86;89.36;95382.50;5034628;28;103518;-63
2023/04/13 09:57:26;;;;;;;2.37;0.60;;;;;;;10.23;90.56;95382.13;5034505;28;104914;-63
2023/04/13 09:59:54;;;;;;;1.93;0.80;;;;;;;10.40;87.14;95380.75;5034209;28;105636;-63
2023/04/13 10:02:22;;;;;;;1.90;1.03;;;;;;;10.20;79.16;95375.50;5033378;28;102144;-63
2023/04/13 10:04:50;;;;;;;1.57;0.90;;;;;;;10.50;81.71;95374.56;5031307;28;105794;-63
2023/04/13 10:07:18;;;;;;;2.07;1.17;;;;;;;10.65;91.02;95369.97;5034576;28;105440;-63
2023/04/13 10:09:45;;;;;;;3.23;0.90;;;;;;;10.61;80.58;95354.84;5030957;28;105608;-63
2023/04/13 10:12:15;;;;;;;2.03;0.70;;;;;;;10.71;86.58;95352.13;5031619;27;103080;-63
2023/04/13 10:14:47;;;;;;;2.00;0.67;;;;;;;11.01;86.82;95346.59;5032399;27;101827;-63
2023/04/13 10:17:27;;;;;;;2.50;0.67;;;;;;;10.58;83.18;95360.72;5032735;27;102262;-63
2023/04/13 10:20:06;;;;;;;3.30;0.60;;;;;;;10.50;82.17;95340.03;5031612;27;102625;-63
2023/04/13 10:22:34;;;;;;;2.03;0.57;;;;;;;10.03;81.03;95367.03;5029804;28;101815;-63
2023/04/13 10:25:01;;;;;;;1.07;0.70;;;;;;;9.88;86.81;95348.50;5031433;28;102767;-63
2023/04/13 10:27:28;;;;;;;1.90;0.60;;;;;;;10.13;82.73;95348.44;5029922;28;105185;-63
2023/04/13 10:29:56;;;;;;;1.37;0.60;;;;;;;10.18;74.01;95342.31;5033767;28;101997;-63
2023/04/13 10:32:24;;;;;;;3.33;0.87;;;;;;;10.22;81.27;95338.03;5029962;28;105127;-64
2023/04/13 10:34:51;;;;;;;2.53;0.93;;;;;;;10.20;73.70;95337.53;5030252;28;102061;-63
2023/04/13 10:37:22;;;;;;;1.20;0.70;;;;;;;10.50;75.41;95348.00;5030371;28;105879;-63
2023/04/13 10:39:49;;;;;;;2.50;1.40;;;;;;;10.29;65.68;95349.16;5029796;28;105139;-63
2023/04/13 10:42:16;;;;;;;1.93;0.70;;;;;;;10.03;68.56;95339.72;5030367;28;101848;-63
2023/04/13 10:44:44;;;;;;;1.47;0.60;;;;;;;10.20;60.45;95338.31;5030379;28;105144;-63
2023/04/13 10:47:11;;;;;;;0.97;0.57;;;;;;;10.41;59.70;95337.16;5029637;28;105674;-63
2023/04/13 10:49:39;;;;;;;1.90;0.50;;;;;;;10.30;57.74;95337.50;5030378;28;101899;-63
2023/04/13 10:52:06;;;;;;;2.20;0.60;;;;;;;10.21;55.67;95353.22;5032922;28;105262;-63
2023/04/13 10:54:37;;;;;;;6.07;1.27;;;;;;;10.32;56.11;95330.84;5029908;28;101971;-63
2023/04/13 10:57:07;;;;;;;2.87;0.83;;;;;;;10.30;60.42;95340.94;5030229;28;104732;-63
2023/04/13 10:59:40;;;;;;;2.60;0.90;;;;;;;10.19;60.08;95344.69;5029606;28;105657;-63
2023/04/13 11:02:10;;;;;;;1.70;0.60;;;;;;;10.14;64.29;95330.66;5030202;28;101908;-63
2023/04/13 11:04:40;;;;;;;1.47;0.70;;;;;;;10.16;60.85;95333.81;5029586;28;103919;-63
2023/04/13 11:07:08;;;;;;;1.27;0.80;;;;;;;10.16;63.94;95339.13;5029774;28;105480;-63
2023/04/13 11:09:38;;;;;;;2.37;1.10;;;;;;;10.20;67.88;95337.53;5030358;28;101943;-63
2023/04/13 11:12:06;;;;;;;3.70;2.03;;;;;;;9.89;64.81;95344.81;5032783;28;103794;-63
2023/04/13 11:14:34;;;;;;;2.10;1.07;;;;;;;9.94;60.40;95342.13;5029677;28;101872;-63
2023/04/13 11:17:01;;;;;;;1.43;0.70;;;;;;;9.82;59.95;95324.91;5030286;28;104961;-63
2023/04/13 11:19:28;;;;;;;2.33;1.10;;;;;;;10.03;61.67;95318.47;5029610;28;105163;-63
2023/04/13 11:21:56;;;;;;;1.67;0.60;;;;;;;9.99;60.89;95328.03;5029617;28;102037;-63
2023/04/13 11:24:25;;;;;;;1.00;0.60;;;;;;;10.17;61.27;95322.94;5030199;28;105663;-63
2023/04/13 11:26:54;;;;;;;1.10;0.50;;;;;;;10.07;55.97;95327.47;5029405;28;105106;-63
2023/04/13 11:29:22;;;;;;;2.17;0.60;;;;;;;10.08;57.54;95343.16;5030225;28;101954;-63
2023/04/13 11:31:48;;;;;;;2.77;1.50;;;;;;;9.92;57.08;95333.63;5031137;27;102945;-63
2023/04/13 11:34:24;;;;;;;4.63;0.90;;;;;;;9.93;53.42;95329.13;5034207;27;103016;-63
2023/04/13 11:36:59;;;;;;;0.93;0.67;;;;;;;9.88;53.70;95337.09;5029937;28;104835;-64
2023/04/13 11:39:26;;;;;;;1.40;0.90;;;;;;;9.76;53.44;95339.28;5010072;28;105074;-63
2023/04/13 11:41:54;;;;;;;0.70;0.60;;;;;;;9.73;53.87;95337.16;5009812;28;101895;-63